KCDH/CDH METAR and TAF weather

Enter ICAO airport designator
Station Type Date Time Source
KCDH METAR 2022/11/30 17:35 UTC NOAA

KCDH 301735Z AUTO 36008G13KT 9SM CLR 09/M05 A3043 RMK AO2


Station Type Date Time Source
KCDH Decoded METAR 2022/11/30 17:35 UTC NOAA

Camden / Harrell Field, AR, United States (KCDH) 33-37N 092-46W
Nov 30, 2022 - 12:35 PM EST / 2022.11.30 1735 UTC
Wind: from the N (360 degrees) at 9 MPH (8 KT) gusting to 15 MPH (13 KT):0
Visibility: 9 mile(s):0
Sky conditions: clear
Temperature: 48 F (9 C)
Dew Point: 23 F (-5 C)
Relative Humidity: 36%
Pressure (altimeter): 30.43 in. Hg (1030 hPa)
ob: KCDH 301735Z AUTO 36008G13KT 9SM CLR 09/M05 A3043 RMK AO2
cycle: 17

Station Type Date Time Source
KCDH TAF UTC NOAA

Error!

Example: see airport list